sensor_id;sensor_type;location;lat;lon;timestamp;pressure;altitude;pressure_sealevel;temperature;humidity
65394;BME280;52002;49.760;6.512;2023-06-24T00:00:56;100869.59;;;17.80;64.90
65394;BME280;52002;49.760;6.512;2023-06-24T00:03:21;100865.73;;;17.79;64.86
65394;BME280;52002;49.760;6.512;2023-06-24T00:05:46;100873.17;;;17.73;65.10
65394;BME280;52002;49.760;6.512;2023-06-24T00:08:18;100871.07;;;17.69;65.08
65394;BME280;52002;49.760;6.512;2023-06-24T00:10:45;100870.28;;;17.68;65.19
65394;BME280;52002;49.760;6.512;2023-06-24T00:13:12;100871.29;;;17.67;65.24
65394;BME280;52002;49.760;6.512;2023-06-24T00:15:38;100871.93;;;17.66;65.25
65394;BME280;52002;49.760;6.512;2023-06-24T00:18:10;100875.98;;;17.63;65.28
65394;BME280;52002;49.760;6.512;2023-06-24T00:20:36;100876.61;;;17.54;65.32
65394;BME280;52002;49.760;6.512;2023-06-24T00:23:02;100876.83;;;17.47;65.58
65394;BME280;52002;49.760;6.512;2023-06-24T00:25:28;100875.45;;;17.46;65.84
65394;BME280;52002;49.760;6.512;2023-06-24T00:27:54;100875.68;;;17.47;66.06
65394;BME280;52002;49.760;6.512;2023-06-24T00:30:19;100875.63;;;17.48;66.25
65394;BME280;52002;49.760;6.512;2023-06-24T00:32:44;100876.29;;;17.50;66.20
65394;BME280;52002;49.760;6.512;2023-06-24T00:35:10;100876.28;;;17.50;66.13
65394;BME280;52002;49.760;6.512;2023-06-24T00:37:38;100872.25;;;17.49;66.01
65394;BME280;52002;49.760;6.512;2023-06-24T00:40:04;100872.54;;;17.46;65.96
65394;BME280;52002;49.760;6.512;2023-06-24T00:42:31;100870.70;;;17.43;66.02
65394;BME280;52002;49.760;6.512;2023-06-24T00:44:56;100870.06;;;17.39;66.18
65394;BME280;52002;49.760;6.512;2023-06-24T00:47:22;100866.91;;;17.38;66.39
65394;BME280;52002;49.760;6.512;2023-06-24T00:49:49;100870.38;;;17.37;66.56
65394;BME280;52002;49.760;6.512;2023-06-24T00:52:14;100870.37;;;17.36;66.58
65394;BME280;52002;49.760;6.512;2023-06-24T00:54:42;100874.95;;;17.35;66.64
65394;BME280;52002;49.760;6.512;2023-06-24T00:57:08;100874.50;;;17.34;66.59
65394;BME280;52002;49.760;6.512;2023-06-24T00:59:34;100878.95;;;17.31;66.63
65394;BME280;52002;49.760;6.512;2023-06-24T01:02:00;100880.63;;;17.31;66.50
65394;BME280;52002;49.760;6.512;2023-06-24T01:04:27;100878.92;;;17.26;66.40
65394;BME280;52002;49.760;6.512;2023-06-24T01:06:53;100877.23;;;17.20;66.34
65394;BME280;52002;49.760;6.512;2023-06-24T01:09:20;100880.92;;;17.14;66.33
65394;BME280;52002;49.760;6.512;2023-06-24T01:11:46;100880.70;;;17.09;66.60
65394;BME280;52002;49.760;6.512;2023-06-24T01:14:12;100875.95;;;17.04;66.66
65394;BME280;52002;49.760;6.512;2023-06-24T01:16:46;100879.95;;;17.04;66.97
65394;BME280;52002;49.760;6.512;2023-06-24T01:19:37;100882.17;;;17.05;67.04
65394;BME280;52002;49.760;6.512;2023-06-24T01:25:17;100870.16;;;17.01;66.94
65394;BME280;52002;49.760;6.512;2023-06-24T01:28:09;100872.63;;;16.96;67.03
65394;BME280;52002;49.760;6.512;2023-06-24T01:31:00;100871.17;;;16.93;67.09
65394;BME280;52002;49.760;6.512;2023-06-24T01:36:27;100877.80;;;16.86;67.60
65394;BME280;52002;49.760;6.512;2023-06-24T01:39:02;100878.57;;;16.85;67.69
65394;BME280;52002;49.760;6.512;2023-06-24T01:41:32;100882.77;;;16.88;67.77
65394;BME280;52002;49.760;6.512;2023-06-24T01:44:00;100878.77;;;16.85;67.76
65394;BME280;52002;49.760;6.512;2023-06-24T01:46:28;100880.04;;;16.85;67.65
65394;BME280;52002;49.760;6.512;2023-06-24T01:48:57;100880.59;;;16.83;67.66
65394;BME280;52002;49.760;6.512;2023-06-24T01:51:26;100881.88;;;16.84;67.77
65394;BME280;52002;49.760;6.512;2023-06-24T01:53:59;100880.76;;;16.85;67.81
65394;BME280;52002;49.760;6.512;2023-06-24T01:56:26;100878.98;;;16.85;67.86
65394;BME280;52002;49.760;6.512;2023-06-24T01:58:54;100878.98;;;16.87;67.93
65394;BME280;52002;49.760;6.512;2023-06-24T02:01:21;100877.91;;;16.87;67.86
65394;BME280;52002;49.760;6.512;2023-06-24T02:03:48;100876.10;;;16.81;67.69
65394;BME280;52002;49.760;6.512;2023-06-24T02:06:16;100877.91;;;16.66;67.55
65394;BME280;52002;49.760;6.512;2023-06-24T02:08:43;100883.92;;;16.55;67.73
65394;BME280;52002;49.760;6.512;2023-06-24T02:11:09;100885.70;;;16.48;68.09
65394;BME280;52002;49.760;6.512;2023-06-24T02:13:36;100882.02;;;16.47;68.32
65394;BME280;52002;49.760;6.512;2023-06-24T02:16:04;100880.20;;;16.47;68.45
65394;BME280;52002;49.760;6.512;2023-06-24T02:18:33;100877.87;;;16.47;68.45
65394;BME280;52002;49.760;6.512;2023-06-24T02:21:00;100871.61;;;16.47;68.21
65394;BME280;52002;49.760;6.512;2023-06-24T02:23:28;100872.87;;;16.45;68.29
65394;BME280;52002;49.760;6.512;2023-06-24T02:25:54;100870.63;;;16.44;68.48
65394;BME280;52002;49.760;6.512;2023-06-24T02:28:21;100870.98;;;16.41;68.54
65394;BME280;52002;49.760;6.512;2023-06-24T02:30:47;100872.82;;;16.33;68.49
65394;BME280;52002;49.760;6.512;2023-06-24T02:33:14;100871.48;;;16.30;68.66
65394;BME280;52002;49.760;6.512;2023-06-24T02:35:40;100874.27;;;16.31;68.83
65394;BME280;52002;49.760;6.512;2023-06-24T02:38:07;100874.17;;;16.30;68.84
65394;BME280;52002;49.760;6.512;2023-06-24T02:40:33;100874.89;;;16.28;68.88
65394;BME280;52002;49.760;6.512;2023-06-24T02:42:59;100875.13;;;16.26;69.06
65394;BME280;52002;49.760;6.512;2023-06-24T02:45:25;100877.30;;;16.28;69.13
65394;BME280;52002;49.760;6.512;2023-06-24T02:47:51;100878.88;;;16.30;69.14
65394;BME280;52002;49.760;6.512;2023-06-24T02:50:18;100878.96;;;16.31;69.15
65394;BME280;52002;49.760;6.512;2023-06-24T02:52:44;100880.41;;;16.31;69.11
65394;BME280;52002;49.760;6.512;2023-06-24T02:55:10;100884.35;;;16.31;69.17
65394;BME280;52002;49.760;6.512;2023-06-24T02:57:43;100883.75;;;16.32;69.24
65394;BME280;52002;49.760;6.512;2023-06-24T03:00:09;100887.11;;;16.30;69.08
65394;BME280;52002;49.760;6.512;2023-06-24T03:02:38;100894.61;;;16.31;69.16
65394;BME280;52002;49.760;6.512;2023-06-24T03:05:05;100894.36;;;16.26;69.05
65394;BME280;52002;49.760;6.512;2023-06-24T03:07:31;100897.71;;;16.24;69.19
65394;BME280;52002;49.760;6.512;2023-06-24T03:10:02;100897.89;;;16.24;69.11
65394;BME280;52002;49.760;6.512;2023-06-24T03:12:28;100897.15;;;16.22;68.92
65394;BME280;52002;49.760;6.512;2023-06-24T03:14:54;100896.12;;;16.19;68.94
65394;BME280;52002;49.760;6.512;2023-06-24T03:17:19;100899.02;;;16.18;69.08
65394;BME280;52002;49.760;6.512;2023-06-24T03:19:45;100902.02;;;16.19;69.15
65394;BME280;52002;49.760;6.512;2023-06-24T03:22:10;100900.27;;;16.18;69.21
65394;BME280;52002;49.760;6.512;2023-06-24T03:24:36;100896.04;;;16.18;69.08
65394;BME280;52002;49.760;6.512;2023-06-24T03:27:01;100894.11;;;16.14;69.26
65394;BME280;52002;49.760;6.512;2023-06-24T03:29:27;100890.00;;;16.14;69.30
65394;BME280;52002;49.760;6.512;2023-06-24T03:31:53;100893.04;;;16.14;69.16
65394;BME280;52002;49.760;6.512;2023-06-24T03:34:19;100895.59;;;16.11;68.90
65394;BME280;52002;49.760;6.512;2023-06-24T03:36:44;100901.39;;;16.09;68.89
65394;BME280;52002;49.760;6.512;2023-06-24T03:39:10;100896.59;;;16.10;68.97
65394;BME280;52002;49.760;6.512;2023-06-24T03:41:35;100898.30;;;16.13;69.04
65394;BME280;52002;49.760;6.512;2023-06-24T03:44:01;100900.22;;;16.15;69.17
65394;BME280;52002;49.760;6.512;2023-06-24T03:46:26;100900.67;;;16.18;69.02
65394;BME280;52002;49.760;6.512;2023-06-24T03:48:52;100905.59;;;16.19;69.04
65394;BME280;52002;49.760;6.512;2023-06-24T03:51:17;100904.02;;;16.20;69.17
65394;BME280;52002;49.760;6.512;2023-06-24T03:53:43;100906.61;;;16.25;69.18
65394;BME280;52002;49.760;6.512;2023-06-24T03:56:08;100909.41;;;16.26;68.78
65394;BME280;52002;49.760;6.512;2023-06-24T03:58:33;100908.20;;;16.26;68.65
65394;BME280;52002;49.760;6.512;2023-06-24T04:01:02;100909.56;;;16.27;68.62
65394;BME280;52002;49.760;6.512;2023-06-24T04:03:28;100910.22;;;16.27;68.51
65394;BME280;52002;49.760;6.512;2023-06-24T04:05:57;100911.84;;;16.23;68.18
65394;BME280;52002;49.760;6.512;2023-06-24T04:08:23;100910.01;;;16.18;68.49
65394;BME280;52002;49.760;6.512;2023-06-24T04:10:54;100916.94;;;16.19;68.57
65394;BME280;52002;49.760;6.512;2023-06-24T04:13:20;100914.17;;;16.20;68.66
65394;BME280;52002;49.760;6.512;2023-06-24T04:15:45;100914.23;;;16.25;68.75
65394;BME280;52002;49.760;6.512;2023-06-24T04:18:10;100912.47;;;16.28;68.64
65394;BME280;52002;49.760;6.512;2023-06-24T04:20:36;100909.23;;;16.30;68.73
65394;BME280;52002;49.760;6.512;2023-06-24T04:23:01;100910.06;;;16.34;68.97
65394;BME280;52002;49.760;6.512;2023-06-24T04:25:26;100902.48;;;16.42;68.99
65394;BME280;52002;49.760;6.512;2023-06-24T04:27:52;100903.71;;;16.47;68.84
65394;BME280;52002;49.760;6.512;2023-06-24T04:30:17;100904.27;;;16.52;68.64
65394;BME280;52002;49.760;6.512;2023-06-24T04:32:42;100906.41;;;16.59;68.48
65394;BME280;52002;49.760;6.512;2023-06-24T04:35:08;100907.28;;;16.59;68.29
65394;BME280;52002;49.760;6.512;2023-06-24T04:37:34;100911.16;;;16.60;68.25
65394;BME280;52002;49.760;6.512;2023-06-24T04:39:59;100913.77;;;16.64;68.42
65394;BME280;52002;49.760;6.512;2023-06-24T04:42:24;100917.32;;;16.72;68.41
65394;BME280;52002;49.760;6.512;2023-06-24T04:44:50;100918.52;;;16.79;68.29
65394;BME280;52002;49.760;6.512;2023-06-24T04:47:18;100917.89;;;16.87;68.09
65394;BME280;52002;49.760;6.512;2023-06-24T04:49:44;100915.66;;;16.90;67.74
65394;BME280;52002;49.760;6.512;2023-06-24T04:52:11;100911.33;;;16.92;67.84
65394;BME280;52002;49.760;6.512;2023-06-24T04:54:36;100907.20;;;16.97;67.91
65394;BME280;52002;49.760;6.512;2023-06-24T04:57:02;100908.98;;;17.03;67.87
65394;BME280;52002;49.760;6.512;2023-06-24T04:59:27;100913.13;;;17.13;67.74
65394;BME280;52002;49.760;6.512;2023-06-24T05:01:52;100913.83;;;17.26;67.67
65394;BME280;52002;49.760;6.512;2023-06-24T05:04:18;100911.77;;;17.37;67.48
65394;BME280;52002;49.760;6.512;2023-06-24T05:06:43;100915.54;;;17.46;67.32
65394;BME280;52002;49.760;6.512;2023-06-24T05:09:09;100915.76;;;17.50;67.02
65394;BME280;52002;49.760;6.512;2023-06-24T05:11:39;100917.29;;;17.56;66.99
65394;BME280;52002;49.760;6.512;2023-06-24T05:14:04;100920.77;;;17.60;66.82
65394;BME280;52002;49.760;6.512;2023-06-24T05:16:30;100924.24;;;17.70;66.82
65394;BME280;52002;49.760;6.512;2023-06-24T05:18:55;100926.15;;;17.81;66.49
65394;BME280;52002;49.760;6.512;2023-06-24T05:21:20;100924.23;;;17.98;66.07
65394;BME280;52002;49.760;6.512;2023-06-24T05:23:45;100923.14;;;19.09;64.11
65394;BME280;52002;49.760;6.512;2023-06-24T05:26:11;100923.95;;;21.48;60.54
65394;BME280;52002;49.760;6.512;2023-06-24T05:28:36;100925.66;;;23.75;57.14
65394;BME280;52002;49.760;6.512;2023-06-24T05:31:02;100931.64;;;25.87;53.68
65394;BME280;52002;49.760;6.512;2023-06-24T05:33:27;100936.95;;;27.80;50.10
65394;BME280;52002;49.760;6.512;2023-06-24T05:35:52;100941.52;;;29.46;46.88
65394;BME280;52002;49.760;6.512;2023-06-24T05:38:18;100945.73;;;30.93;43.97
65394;BME280;52002;49.760;6.512;2023-06-24T05:40:43;100950.09;;;32.23;41.32
65394;BME280;52002;49.760;6.512;2023-06-24T05:43:10;100950.21;;;33.51;39.05
65394;BME280;52002;49.760;6.512;2023-06-24T05:45:36;100945.86;;;34.63;37.21
65394;BME280;52002;49.760;6.512;2023-06-24T05:48:03;100950.44;;;35.68;34.99
65394;BME280;52002;49.760;6.512;2023-06-24T05:50:28;100950.84;;;36.41;32.97
65394;BME280;52002;49.760;6.512;2023-06-24T05:52:53;100952.32;;;36.95;31.92
65394;BME280;52002;49.760;6.512;2023-06-24T05:55:19;100952.66;;;37.67;30.94
65394;BME280;52002;49.760;6.512;2023-06-24T05:57:44;100947.42;;;38.54;29.99
65394;BME280;52002;49.760;6.512;2023-06-24T06:00:10;100946.53;;;39.42;28.69
65394;BME280;52002;49.760;6.512;2023-06-24T06:02:35;100946.02;;;40.32;27.68
65394;BME280;52002;49.760;6.512;2023-06-24T06:05:01;100945.08;;;41.05;26.37
65394;BME280;52002;49.760;6.512;2023-06-24T06:07:26;100949.42;;;41.77;25.61
65394;BME280;52002;49.760;6.512;2023-06-24T06:09:52;100948.33;;;42.44;24.80
65394;BME280;52002;49.760;6.512;2023-06-24T06:12:17;100946.19;;;43.05;23.78
65394;BME280;52002;49.760;6.512;2023-06-24T06:14:42;100948.95;;;43.47;22.89
65394;BME280;52002;49.760;6.512;2023-06-24T06:17:08;100945.86;;;43.83;22.02
65394;BME280;52002;49.760;6.512;2023-06-24T06:19:33;100945.93;;;44.08;21.74
65394;BME280;52002;49.760;6.512;2023-06-24T06:21:59;100944.70;;;44.61;21.26
65394;BME280;52002;49.760;6.512;2023-06-24T06:24:24;100942.17;;;45.23;20.72
65394;BME280;52002;49.760;6.512;2023-06-24T06:26:49;100941.36;;;45.80;20.20
65394;BME280;52002;49.760;6.512;2023-06-24T06:29:14;100944.56;;;46.08;19.55
65394;BME280;52002;49.760;6.512;2023-06-24T06:31:40;100941.42;;;46.22;19.05
65394;BME280;52002;49.760;6.512;2023-06-24T06:34:05;100941.55;;;46.20;18.78
65394;BME280;52002;49.760;6.512;2023-06-24T06:36:30;100940.88;;;46.25;18.45
65394;BME280;52002;49.760;6.512;2023-06-24T06:38:56;100936.58;;;46.27;18.48
65394;BME280;52002;49.760;6.512;2023-06-24T06:41:21;100939.62;;;46.66;18.43
65394;BME280;52002;49.760;6.512;2023-06-24T06:43:50;100939.92;;;47.02;17.93
65394;BME280;52002;49.760;6.512;2023-06-24T06:46:16;100937.60;;;47.18;17.68
65394;BME280;52002;49.760;6.512;2023-06-24T06:48:42;100933.17;;;47.36;17.41
65394;BME280;52002;49.760;6.512;2023-06-24T06:51:07;100933.79;;;47.82;17.39
65394;BME280;52002;49.760;6.512;2023-06-24T06:53:32;100929.30;;;48.47;17.24
65394;BME280;52002;49.760;6.512;2023-06-24T06:55:58;100925.95;;;49.32;16.63
65394;BME280;52002;49.760;6.512;2023-06-24T06:58:24;100930.30;;;50.02;16.24
65394;BME280;52002;49.760;6.512;2023-06-24T07:00:49;100928.70;;;50.51;15.48
65394;BME280;52002;49.760;6.512;2023-06-24T07:03:15;100929.31;;;50.99;15.29
65394;BME280;52002;49.760;6.512;2023-06-24T07:05:41;100923.91;;;51.61;14.87
65394;BME280;52002;49.760;6.512;2023-06-24T07:08:06;100919.25;;;52.27;14.61
65394;BME280;52002;49.760;6.512;2023-06-24T07:10:32;100923.75;;;52.88;14.31
65394;BME280;52002;49.760;6.512;2023-06-24T07:12:57;100914.74;;;53.38;13.37
65394;BME280;52002;49.760;6.512;2023-06-24T07:15:26;100915.00;;;53.69;13.15
65394;BME280;52002;49.760;6.512;2023-06-24T07:17:52;100914.84;;;53.92;12.78
65394;BME280;52002;49.760;6.512;2023-06-24T07:20:18;100909.60;;;54.10;12.44
65394;BME280;52002;49.760;6.512;2023-06-24T07:22:44;100904.91;;;54.20;12.39
65394;BME280;52002;49.760;6.512;2023-06-24T07:25:10;100901.17;;;54.64;12.39
65394;BME280;52002;49.760;6.512;2023-06-24T07:27:35;100899.33;;;55.18;12.17
65394;BME280;52002;49.760;6.512;2023-06-24T07:30:00;100899.38;;;55.67;11.71
65394;BME280;52002;49.760;6.512;2023-06-24T07:32:26;100898.84;;;56.07;11.53
65394;BME280;52002;49.760;6.512;2023-06-24T07:34:51;100892.42;;;56.32;11.00
65394;BME280;52002;49.760;6.512;2023-06-24T07:37:16;100888.98;;;56.62;11.12
65394;BME280;52002;49.760;6.512;2023-06-24T07:39:42;100886.93;;;57.01;11.02
65394;BME280;52002;49.760;6.512;2023-06-24T07:42:07;100884.00;;;57.31;10.44
65394;BME280;52002;49.760;6.512;2023-06-24T07:44:33;100886.25;;;57.41;10.49
65394;BME280;52002;49.760;6.512;2023-06-24T07:46:58;100888.98;;;57.52;10.58
65394;BME280;52002;49.760;6.512;2023-06-24T07:49:23;100888.77;;;57.86;10.56
65394;BME280;52002;49.760;6.512;2023-06-24T07:51:49;100887.56;;;58.18;10.24
65394;BME280;52002;49.760;6.512;2023-06-24T07:54:14;100886.20;;;58.37;10.35
65394;BME280;52002;49.760;6.512;2023-06-24T07:56:40;100887.27;;;58.41;10.46
65394;BME280;52002;49.760;6.512;2023-06-24T07:59:06;100883.42;;;58.40;10.38
65394;BME280;52002;49.760;6.512;2023-06-24T08:01:31;100884.30;;;58.37;10.10
65394;BME280;52002;49.760;6.512;2023-06-24T08:03:57;100880.14;;;58.25;10.45
65394;BME280;52002;49.760;6.512;2023-06-24T08:06:22;100874.95;;;58.09;10.31
65394;BME280;52002;49.760;6.512;2023-06-24T08:08:48;100875.09;;;57.88;10.09
65394;BME280;52002;49.760;6.512;2023-06-24T08:11:13;100877.83;;;57.64;10.35
65394;BME280;52002;49.760;6.512;2023-06-24T08:13:39;100869.69;;;57.33;10.16
65394;BME280;52002;49.760;6.512;2023-06-24T08:16:05;100867.62;;;56.96;10.54
65394;BME280;52002;49.760;6.512;2023-06-24T08:18:30;100863.69;;;56.63;10.47
65394;BME280;52002;49.760;6.512;2023-06-24T08:20:56;100859.27;;;56.22;10.46
65394;BME280;52002;49.760;6.512;2023-06-24T08:23:21;100858.94;;;55.95;10.79
65394;BME280;52002;49.760;6.512;2023-06-24T08:25:46;100855.34;;;55.75;10.71
65394;BME280;52002;49.760;6.512;2023-06-24T08:28:12;100853.76;;;55.52;10.76
65394;BME280;52002;49.760;6.512;2023-06-24T08:30:37;100847.38;;;55.31;10.83
65394;BME280;52002;49.760;6.512;2023-06-24T08:33:02;100847.50;;;55.13;10.89
65394;BME280;52002;49.760;6.512;2023-06-24T08:35:28;100839.61;;;55.02;11.46
65394;BME280;52002;49.760;6.512;2023-06-24T08:37:53;100835.12;;;54.94;11.57
65394;BME280;52002;49.760;6.512;2023-06-24T08:40:19;100830.23;;;54.91;11.52
65394;BME280;52002;49.760;6.512;2023-06-24T08:42:44;100825.52;;;54.81;11.53
65394;BME280;52002;49.760;6.512;2023-06-24T08:45:10;100824.73;;;54.70;11.34
65394;BME280;52002;49.760;6.512;2023-06-24T08:47:35;100825.95;;;54.47;11.10
65394;BME280;52002;49.760;6.512;2023-06-24T08:50:04;100822.02;;;54.07;11.67
65394;BME280;52002;49.760;6.512;2023-06-24T08:52:35;100815.64;;;53.62;11.29
65394;BME280;52002;49.760;6.512;2023-06-24T08:55:02;100812.27;;;53.25;11.73
65394;BME280;52002;49.760;6.512;2023-06-24T08:57:29;100810.14;;;52.91;12.07
65394;BME280;52002;49.760;6.512;2023-06-24T08:59:55;100806.39;;;52.22;12.27
65394;BME280;52002;49.760;6.512;2023-06-24T09:02:20;100804.87;;;51.23;12.63
65394;BME280;52002;49.760;6.512;2023-06-24T09:04:45;100802.39;;;49.56;13.55
65394;BME280;52002;49.760;6.512;2023-06-24T09:07:11;100793.73;;;47.66;14.81
65394;BME280;52002;49.760;6.512;2023-06-24T09:09:44;100792.98;;;45.80;15.79
65394;BME280;52002;49.760;6.512;2023-06-24T09:12:11;100787.93;;;44.16;17.56
65394;BME280;52002;49.760;6.512;2023-06-24T09:14:37;100789.52;;;42.84;18.39
65394;BME280;52002;49.760;6.512;2023-06-24T09:17:03;100788.79;;;41.61;19.35
65394;BME280;52002;49.760;6.512;2023-06-24T09:19:32;100782.84;;;40.40;20.18
65394;BME280;52002;49.760;6.512;2023-06-24T09:22:09;100777.97;;;39.28;20.93
65394;BME280;52002;49.760;6.512;2023-06-24T09:24:41;100778.23;;;38.01;22.28
65394;BME280;52002;49.760;6.512;2023-06-24T09:27:07;100778.37;;;37.00;23.38
65394;BME280;52002;49.760;6.512;2023-06-24T09:29:34;100781.91;;;36.16;23.78
65394;BME280;52002;49.760;6.512;2023-06-24T09:31:59;100774.15;;;35.39;25.03
65394;BME280;52002;49.760;6.512;2023-06-24T09:34:28;100772.14;;;34.77;25.86
65394;BME280;52002;49.760;6.512;2023-06-24T09:36:55;100772.58;;;34.34;26.99
65394;BME280;52002;49.760;6.512;2023-06-24T09:39:21;100773.48;;;33.95;27.23
65394;BME280;52002;49.760;6.512;2023-06-24T09:41:51;100767.72;;;33.61;27.93
65394;BME280;52002;49.760;6.512;2023-06-24T09:44:17;100767.40;;;33.32;28.26
65394;BME280;52002;49.760;6.512;2023-06-24T09:46:44;100769.45;;;33.09;28.60
65394;BME280;52002;49.760;6.512;2023-06-24T09:49:10;100764.21;;;32.90;28.75
65394;BME280;52002;49.760;6.512;2023-06-24T09:51:43;100754.95;;;32.71;29.03
65394;BME280;52002;49.760;6.512;2023-06-24T09:54:11;100754.35;;;32.53;29.00
65394;BME280;52002;49.760;6.512;2023-06-24T09:56:43;100751.55;;;32.33;28.78
65394;BME280;52002;49.760;6.512;2023-06-24T09:59:12;100746.13;;;32.14;29.65
65394;BME280;52002;49.760;6.512;2023-06-24T10:01:42;100744.11;;;31.98;29.68
65394;BME280;52002;49.760;6.512;2023-06-24T10:04:16;100751.63;;;31.87;30.51
65394;BME280;52002;49.760;6.512;2023-06-24T10:06:42;100752.92;;;31.73;30.66
65394;BME280;52002;49.760;6.512;2023-06-24T10:09:08;100750.57;;;31.56;30.52
65394;BME280;52002;49.760;6.512;2023-06-24T10:11:33;100747.42;;;31.36;30.62
65394;BME280;52002;49.760;6.512;2023-06-24T10:13:59;100745.23;;;31.14;31.15
65394;BME280;52002;49.760;6.512;2023-06-24T10:16:24;100745.65;;;31.04;31.30
65394;BME280;52002;49.760;6.512;2023-06-24T10:18:50;100741.46;;;31.01;31.47
65394;BME280;52002;49.760;6.512;2023-06-24T10:21:15;100736.23;;;30.93;31.77
65394;BME280;52002;49.760;6.512;2023-06-24T10:26:42;100731.05;;;30.98;31.88
65394;BME280;52002;49.760;6.512;2023-06-24T10:37:02;100728.43;;;31.09;30.77
65394;BME280;52002;49.760;6.512;2023-06-24T10:42:37;100724.73;;;31.07;31.54
65394;BME280;52002;49.760;6.512;2023-06-24T10:47:44;100715.52;;;30.95;30.31
65394;BME280;52002;49.760;6.512;2023-06-24T10:50:12;100713.71;;;30.78;30.11
65394;BME280;52002;49.760;6.512;2023-06-24T10:52:46;100706.70;;;30.62;30.29
65394;BME280;52002;49.760;6.512;2023-06-24T10:55:16;100705.98;;;30.50;30.27
65394;BME280;52002;49.760;6.512;2023-06-24T10:57:41;100700.05;;;30.37;30.65
65394;BME280;52002;49.760;6.512;2023-06-24T11:00:08;100694.33;;;30.31;32.02
65394;BME280;52002;49.760;6.512;2023-06-24T11:02:33;100693.48;;;30.34;32.73
65394;BME280;52002;49.760;6.512;2023-06-24T11:05:01;100689.18;;;30.36;31.53
65394;BME280;52002;49.760;6.512;2023-06-24T11:07:28;100691.58;;;30.37;31.51
65394;BME280;52002;49.760;6.512;2023-06-24T11:09:57;100686.42;;;30.40;31.26
65394;BME280;52002;49.760;6.512;2023-06-24T11:12:24;100685.89;;;30.49;31.14
65394;BME280;52002;49.760;6.512;2023-06-24T11:14:50;100685.19;;;30.53;31.32
65394;BME280;52002;49.760;6.512;2023-06-24T11:17:16;100682.86;;;30.52;31.16
65394;BME280;52002;49.760;6.512;2023-06-24T11:19:41;100680.59;;;30.29;30.81
65394;BME280;52002;49.760;6.512;2023-06-24T11:22:09;100680.02;;;30.02;31.19
65394;BME280;52002;49.760;6.512;2023-06-24T11:24:35;100673.67;;;29.83;31.10
65394;BME280;52002;49.760;6.512;2023-06-24T11:27:03;100672.58;;;29.77;31.28
65394;BME280;52002;49.760;6.512;2023-06-24T11:29:29;100669.48;;;29.89;31.32
65394;BME280;52002;49.760;6.512;2023-06-24T11:31:55;100664.64;;;30.05;31.35
65394;BME280;52002;49.760;6.512;2023-06-24T11:34:21;100664.48;;;30.23;31.21
65394;BME280;52002;49.760;6.512;2023-06-24T11:36:48;100663.31;;;30.34;31.08
65394;BME280;52002;49.760;6.512;2023-06-24T11:39:23;100661.08;;;30.43;31.01
65394;BME280;52002;49.760;6.512;2023-06-24T11:41:50;100657.83;;;30.47;30.92
65394;BME280;52002;49.760;6.512;2023-06-24T11:44:18;100657.49;;;30.52;30.66
65394;BME280;52002;49.760;6.512;2023-06-24T11:46:44;100654.56;;;30.51;30.79
65394;BME280;52002;49.760;6.512;2023-06-24T11:49:09;100649.82;;;30.56;31.04
65394;BME280;52002;49.760;6.512;2023-06-24T11:51:36;100645.30;;;30.60;31.27
65394;BME280;52002;49.760;6.512;2023-06-24T11:54:03;100642.48;;;30.59;30.46
65394;BME280;52002;49.760;6.512;2023-06-24T11:56:41;100635.06;;;30.54;30.45
65394;BME280;52002;49.760;6.512;2023-06-24T11:59:18;100635.20;;;30.49;30.24
65394;BME280;52002;49.760;6.512;2023-06-24T12:01:45;100634.83;;;30.40;30.08
65394;BME280;52002;49.760;6.512;2023-06-24T12:04:13;100627.23;;;30.30;30.19
65394;BME280;52002;49.760;6.512;2023-06-24T12:06:43;100627.90;;;30.07;29.98
65394;BME280;52002;49.760;6.512;2023-06-24T12:09:10;100617.55;;;29.82;30.08
65394;BME280;52002;49.760;6.512;2023-06-24T12:11:35;100615.35;;;29.74;30.84
65394;BME280;52002;49.760;6.512;2023-06-24T12:14:01;100612.36;;;29.84;31.05
65394;BME280;52002;49.760;6.512;2023-06-24T12:16:26;100611.69;;;29.98;31.05
65394;BME280;52002;49.760;6.512;2023-06-24T12:18:52;100610.04;;;30.13;30.76
65394;BME280;52002;49.760;6.512;2023-06-24T12:21:19;100606.86;;;30.25;30.83
65394;BME280;52002;49.760;6.512;2023-06-24T12:23:44;100607.14;;;30.30;30.16
65394;BME280;52002;49.760;6.512;2023-06-24T12:26:10;100603.91;;;30.35;30.59
65394;BME280;52002;49.760;6.512;2023-06-24T12:28:36;100603.69;;;30.45;30.99
65394;BME280;52002;49.760;6.512;2023-06-24T12:31:01;100598.90;;;30.53;31.12
65394;BME280;52002;49.760;6.512;2023-06-24T12:33:27;100595.97;;;30.55;31.39
65394;BME280;52002;49.760;6.512;2023-06-24T12:35:53;100594.64;;;30.59;31.10
65394;BME280;52002;49.760;6.512;2023-06-24T12:38:18;100595.02;;;30.58;30.97
65394;BME280;52002;49.760;6.512;2023-06-24T12:40:43;100590.92;;;30.61;30.49
65394;BME280;52002;49.760;6.512;2023-06-24T12:43:10;100588.90;;;30.66;30.68
65394;BME280;52002;49.760;6.512;2023-06-24T12:45:39;100584.29;;;30.63;30.09
65394;BME280;52002;49.760;6.512;2023-06-24T12:48:05;100584.08;;;30.56;29.27
65394;BME280;52002;49.760;6.512;2023-06-24T12:50:31;100581.83;;;30.37;29.23
65394;BME280;52002;49.760;6.512;2023-06-24T12:52:57;100578.14;;;30.28;29.47
65394;BME280;52002;49.760;6.512;2023-06-24T12:55:23;100573.58;;;30.28;29.78
65394;BME280;52002;49.760;6.512;2023-06-24T12:57:48;100569.67;;;30.17;29.32
65394;BME280;52002;49.760;6.512;2023-06-24T13:00:14;100572.52;;;30.03;29.39
65394;BME280;52002;49.760;6.512;2023-06-24T13:02:40;100566.49;;;29.95;29.38
65394;BME280;52002;49.760;6.512;2023-06-24T13:05:05;100565.66;;;29.89;29.49
65394;BME280;52002;49.760;6.512;2023-06-24T13:07:31;100563.17;;;29.84;29.89
65394;BME280;52002;49.760;6.512;2023-06-24T13:09:56;100558.22;;;29.84;30.06